Time;durP1;ratioP1;P1;durP2;ratioP2;P2;SDS_P1;SDS_P2;PMS_P1;PMS_P2;Temp;Humidity;BMP_temperature;BMP_pressure;BME280_temperature;BME280_humidity;BME280_pressure;Samples;Min_cycle;Max_cycle;Signal;HPM_P1;HPM_P2
2023/12/28 00:00:30;;;;;;;13.43;7.97;;;3.50;99.90;;;;;;5020332;28;20425;-62
2023/12/28 00:02:56;;;;;;;11.00;7.93;;;3.50;99.90;;;;;;5020183;28;20025;-63
2023/12/28 00:05:21;;;;;;;10.77;7.97;;;3.60;99.90;;;;;;5018864;28;20042;-61
2023/12/28 00:07:47;;;;;;;11.13;7.05;;;3.70;99.90;;;;;;5021399;28;20120;-61
2023/12/28 00:10:13;;;;;;;11.85;7.32;;;3.70;99.90;;;;;;5020161;28;20074;-59
2023/12/28 00:12:38;;;;;;;8.20;6.97;;;3.70;99.90;;;;;;5018832;28;20112;-63
2023/12/28 00:15:04;;;;;;;10.65;7.70;;;3.80;99.90;;;;;;5016283;28;20041;-64
2023/12/28 00:17:30;;;;;;;9.57;8.07;;;3.70;99.90;;;;;;5018835;28;20057;-63
2023/12/28 00:19:56;;;;;;;7.68;6.47;;;3.70;99.90;;;;;;5019337;28;20522;-63
2023/12/28 00:22:22;;;;;;;11.18;7.22;;;3.70;99.90;;;;;;5020067;28;20183;-62
2023/12/28 00:24:48;;;;;;;7.80;6.93;;;3.60;99.90;;;;;;5020420;28;20041;-62
2023/12/28 00:27:13;;;;;;;8.43;6.85;;;3.60;99.90;;;;;;5016579;28;20104;-63
2023/12/28 00:29:39;;;;;;;8.63;6.45;;;3.60;99.90;;;;;;5021261;28;20030;-64
2023/12/28 00:32:07;;;;;;;9.20;7.78;;;3.60;99.90;;;;;;5020189;28;20029;-62
2023/12/28 00:34:33;;;;;;;7.22;6.53;;;3.60;99.90;;;;;;5021875;28;20064;-63
2023/12/28 00:36:59;;;;;;;8.52;7.35;;;3.60;99.90;;;;;;5022987;28;20013;-62
2023/12/28 00:39:24;;;;;;;7.63;6.82;;;3.70;99.90;;;;;;5020922;28;20037;-62
2023/12/28 00:41:50;;;;;;;8.30;6.85;;;3.70;99.90;;;;;;5024193;28;20757;-63
2023/12/28 00:44:15;;;;;;;8.13;7.32;;;3.60;99.90;;;;;;5023484;28;20101;-63
2023/12/28 00:46:41;;;;;;;8.00;6.68;;;3.60;99.90;;;;;;5021320;28;20394;-63
2023/12/28 00:49:08;;;;;;;9.35;8.27;;;3.50;99.90;;;;;;5022346;28;20174;-63
2023/12/28 00:51:33;;;;;;;7.57;6.60;;;3.50;99.90;;;;;;5021970;28;20029;-63
2023/12/28 00:53:59;;;;;;;9.15;7.50;;;3.40;99.90;;;;;;5021383;28;20117;-63
2023/12/28 00:56:25;;;;;;;11.00;7.70;;;3.40;99.90;;;;;;5024212;28;20037;-62
2023/12/28 00:58:50;;;;;;;13.40;8.38;;;3.40;99.90;;;;;;5022702;28;20030;-62
2023/12/28 01:01:16;;;;;;;8.00;6.93;;;3.40;99.90;;;;;;5020337;28;20029;-62
2023/12/28 01:03:41;;;;;;;9.43;7.22;;;3.40;99.90;;;;;;5023796;28;20076;-62
2023/12/28 01:06:07;;;;;;;9.52;7.18;;;3.40;99.90;;;;;;5022806;28;20029;-63
2023/12/28 01:08:35;;;;;;;9.05;7.57;;;3.30;99.90;;;;;;5022307;28;20037;-64
2023/12/28 01:11:02;;;;;;;9.27;7.35;;;3.30;99.90;;;;;;5023941;28;20061;-64
2023/12/28 01:13:28;;;;;;;11.05;7.45;;;3.30;99.90;;;;;;5021701;28;20057;-63
2023/12/28 01:15:54;;;;;;;9.68;7.30;;;3.40;99.90;;;;;;5019671;28;20030;-61
2023/12/28 01:18:20;;;;;;;8.75;7.13;;;3.40;99.90;;;;;;5020332;28;20034;-62
2023/12/28 01:20:46;;;;;;;7.78;6.50;;;3.40;99.90;;;;;;5021421;28;20025;-62
2023/12/28 01:23:11;;;;;;;13.15;7.68;;;3.40;99.90;;;;;;5018783;28;20087;-62
2023/12/28 01:25:37;;;;;;;10.90;7.75;;;3.40;99.90;;;;;;5022279;28;20453;-62
2023/12/28 01:28:03;;;;;;;12.98;8.73;;;3.40;99.90;;;;;;5022502;28;20072;-64
2023/12/28 01:30:29;;;;;;;8.95;7.05;;;3.40;99.90;;;;;;5020888;28;20048;-64
2023/12/28 01:32:54;;;;;;;9.30;6.90;;;3.50;99.90;;;;;;5021968;28;20518;-62
2023/12/28 01:35:20;;;;;;;9.60;6.68;;;3.60;99.90;;;;;;5020725;28;20128;-63
2023/12/28 01:37:45;;;;;;;11.35;7.65;;;3.60;99.90;;;;;;5020333;28;20029;-61
2023/12/28 01:40:11;;;;;;;10.60;6.93;;;3.60;99.90;;;;;;5023259;28;20049;-63
2023/12/28 01:42:37;;;;;;;7.97;6.50;;;3.60;99.90;;;;;;5020532;28;20037;-64
2023/12/28 01:45:04;;;;;;;8.63;7.13;;;3.60;99.90;;;;;;5018473;28;20497;-63
2023/12/28 01:47:30;;;;;;;8.05;7.28;;;3.60;99.90;;;;;;5024304;28;20084;-62
2023/12/28 01:49:56;;;;;;;8.73;6.88;;;3.60;99.90;;;;;;5023715;28;20061;-63
2023/12/28 01:52:22;;;;;;;8.32;7.22;;;3.50;99.90;;;;;;5023895;28;20028;-60
2023/12/28 01:54:49;;;;;;;9.15;7.45;;;3.50;99.90;;;;;;5021240;28;20124;-63
2023/12/28 01:57:15;;;;;;;10.48;7.57;;;3.50;99.90;;;;;;5023929;28;20063;-62
2023/12/28 01:59:41;;;;;;;9.43;6.88;;;3.50;99.90;;;;;;5020018;28;20041;-62
2023/12/28 02:02:07;;;;;;;10.55;7.25;;;3.50;99.90;;;;;;5021549;28;20025;-63
2023/12/28 02:04:35;;;;;;;9.02;7.63;;;3.50;99.90;;;;;;5021374;28;20038;-62
2023/12/28 02:07:01;;;;;;;7.75;6.70;;;3.40;99.90;;;;;;5021562;28;20026;-63
2023/12/28 02:09:27;;;;;;;9.13;6.72;;;3.40;99.90;;;;;;5020449;28;20095;-64
2023/12/28 02:11:53;;;;;;;7.90;6.10;;;3.40;99.90;;;;;;5021408;28;20113;-63
2023/12/28 02:14:21;;;;;;;7.55;6.60;;;3.40;99.90;;;;;;5021978;28;20637;-62
2023/12/28 02:16:54;;;;;;;8.40;6.70;;;3.40;99.90;;;;;;5020845;28;20033;-63
2023/12/28 02:19:50;;;;;;;9.23;6.25;;;3.40;99.90;;;;;;5019062;28;20118;-63
2023/12/28 02:22:16;;;;;;;8.95;7.22;;;3.40;99.90;;;;;;5020164;28;20022;-62
2023/12/28 02:24:54;;;;;;;7.18;6.53;;;3.40;99.90;;;;;;5022543;28;20076;-63
2023/12/28 02:27:19;;;;;;;8.25;6.95;;;3.30;99.90;;;;;;5022768;28;20047;-62
2023/12/28 02:29:45;;;;;;;8.07;7.28;;;3.30;99.90;;;;;;5023071;28;20397;-63
2023/12/28 02:32:12;;;;;;;8.35;7.50;;;3.30;99.90;;;;;;5022339;28;20409;-64
2023/12/28 02:34:42;;;;;;;9.63;8.10;;;3.30;99.90;;;;;;5019447;28;20033;-62
2023/12/28 02:37:10;;;;;;;8.05;7.07;;;3.30;99.90;;;;;;5020145;28;20025;-63
2023/12/28 02:39:38;;;;;;;13.52;9.55;;;3.30;99.90;;;;;;5020708;28;20418;-61
2023/12/28 02:42:04;;;;;;;11.00;6.88;;;3.20;99.90;;;;;;5018980;28;20048;-63
2023/12/28 02:44:29;;;;;;;8.27;7.20;;;3.30;99.90;;;;;;5022119;28;20042;-62
2023/12/28 02:46:55;;;;;;;9.60;7.43;;;3.30;99.90;;;;;;5020129;28;20021;-62
2023/12/28 02:49:21;;;;;;;9.73;7.97;;;3.30;99.90;;;;;;5020926;28;20129;-66
2023/12/28 02:51:47;;;;;;;8.13;7.25;;;3.30;99.90;;;;;;5022325;28;20056;-63
2023/12/28 02:54:13;;;;;;;10.95;7.93;;;3.30;99.90;;;;;;5017254;28;20100;-60
2023/12/28 02:56:41;;;;;;;7.90;7.10;;;3.30;99.90;;;;;;5000315;28;20133;-62
2023/12/28 02:59:06;;;;;;;9.15;7.90;;;3.30;99.90;;;;;;5021404;28;20034;-62
2023/12/28 03:01:32;;;;;;;7.72;6.93;;;3.30;99.90;;;;;;5023705;28;20127;-62
2023/12/28 03:03:57;;;;;;;10.43;7.57;;;3.30;99.90;;;;;;5020955;28;20088;-64
2023/12/28 03:06:23;;;;;;;10.32;7.10;;;3.30;99.90;;;;;;5018875;28;20029;-62
2023/12/28 03:08:49;;;;;;;9.00;8.00;;;3.20;99.90;;;;;;5020689;28;20156;-62
2023/12/28 03:11:14;;;;;;;8.35;7.00;;;3.20;99.90;;;;;;5017915;28;20037;-62
2023/12/28 03:13:40;;;;;;;8.73;7.85;;;3.20;99.90;;;;;;5021973;28;20049;-63
2023/12/28 03:16:06;;;;;;;8.95;8.05;;;3.20;99.90;;;;;;5019995;28;20144;-62
2023/12/28 03:18:32;;;;;;;9.57;7.93;;;3.20;99.90;;;;;;5017683;28;20045;-64
2023/12/28 03:20:57;;;;;;;9.07;8.15;;;3.20;99.90;;;;;;5018030;28;20029;-62
2023/12/28 03:23:23;;;;;;;10.95;8.88;;;3.20;99.90;;;;;;5017901;28;20025;-63
2023/12/28 03:25:48;;;;;;;11.25;9.32;;;3.20;99.90;;;;;;5024050;28;20596;-63
2023/12/28 03:28:15;;;;;;;7.85;7.05;;;3.20;99.90;;;;;;5020884;28;20033;-65
2023/12/28 03:30:40;;;;;;;7.68;6.50;;;3.20;99.90;;;;;;5021280;28;20030;-63
2023/12/28 03:33:06;;;;;;;8.93;6.82;;;3.10;99.90;;;;;;5021822;28;20493;-64
2023/12/28 03:35:31;;;;;;;10.68;6.70;;;3.10;99.90;;;;;;5018394;28;20413;-65
2023/12/28 03:37:57;;;;;;;9.88;7.45;;;3.10;99.90;;;;;;5016803;28;20037;-63
2023/12/28 03:40:23;;;;;;;8.57;7.40;;;3.10;99.90;;;;;;5019041;28;20034;-62
2023/12/28 03:42:48;;;;;;;9.90;7.18;;;3.20;99.90;;;;;;5019329;28;20091;-64
2023/12/28 03:45:14;;;;;;;8.05;7.25;;;3.20;99.90;;;;;;5020380;28;20286;-63
2023/12/28 03:47:40;;;;;;;9.95;7.22;;;3.20;99.90;;;;;;5021205;28;20044;-62
2023/12/28 03:50:06;;;;;;;8.32;7.30;;;3.20;99.90;;;;;;5018269;28;20033;-63
2023/12/28 03:52:32;;;;;;;10.02;6.65;;;3.20;99.90;;;;;;5020766;28;20096;-64
2023/12/28 03:54:57;;;;;;;7.45;6.75;;;3.20;99.90;;;;;;5016303;28;20108;-63
2023/12/28 03:57:23;;;;;;;8.77;6.43;;;3.30;99.90;;;;;;5018815;28;20026;-64
2023/12/28 03:59:49;;;;;;;7.93;7.07;;;3.30;99.90;;;;;;5018443;28;20453;-62
2023/12/28 04:02:14;;;;;;;7.30;6.05;;;3.40;99.90;;;;;;5019851;28;20097;-62
2023/12/28 04:04:40;;;;;;;8.48;7.78;;;3.50;99.90;;;;;;5021682;28;20045;-63
2023/12/28 04:07:08;;;;;;;9.27;7.28;;;3.50;99.90;;;;;;5019746;28;20516;-64
2023/12/28 04:09:34;;;;;;;7.00;6.15;;;3.60;99.90;;;;;;5019740;28;20043;-63
2023/12/28 04:12:00;;;;;;;8.55;6.65;;;3.60;99.90;;;;;;5016222;28;20033;-63
2023/12/28 04:14:26;;;;;;;9.32;6.25;;;3.70;99.90;;;;;;5019347;28;20490;-64
2023/12/28 04:16:51;;;;;;;8.55;6.20;;;3.70;99.90;;;;;;5018497;28;20026;-63
2023/12/28 04:19:17;;;;;;;7.20;6.10;;;3.70;99.90;;;;;;5018496;28;20456;-63
2023/12/28 04:21:44;;;;;;;6.63;4.93;;;3.80;99.90;;;;;;5021277;28;20029;-62
2023/12/28 04:24:09;;;;;;;6.15;5.22;;;3.90;99.90;;;;;;5018437;28;20040;-61
2023/12/28 04:26:35;;;;;;;6.72;5.53;;;3.90;99.90;;;;;;5019821;28;20117;-62
2023/12/28 04:29:01;;;;;;;5.90;5.20;;;4.00;99.90;;;;;;5021411;28;20034;-64
2023/12/28 04:31:27;;;;;;;7.20;5.82;;;4.10;99.90;;;;;;5018277;28;20084;-64
2023/12/28 04:33:52;;;;;;;5.80;5.18;;;4.10;99.90;;;;;;5019179;28;20013;-63
2023/12/28 04:36:18;;;;;;;6.70;5.30;;;4.10;99.90;;;;;;5018523;28;20033;-63
2023/12/28 04:38:43;;;;;;;7.10;5.18;;;4.10;99.90;;;;;;5020535;28;20179;-62
2023/12/28 04:41:10;;;;;;;5.10;4.35;;;4.20;99.90;;;;;;5021470;28;20037;-63
2023/12/28 04:43:36;;;;;;;5.50;4.82;;;4.20;99.90;;;;;;5021753;28;20030;-63
2023/12/28 04:46:05;;;;;;;5.65;4.03;;;4.20;99.90;;;;;;5021308;28;20049;-62
2023/12/28 04:48:32;;;;;;;6.88;3.90;;;4.20;99.90;;;;;;5018890;28;20033;-65
2023/12/28 04:50:57;;;;;;;5.10;3.83;;;4.30;99.90;;;;;;5018818;28;20457;-64
2023/12/28 04:53:23;;;;;;;5.85;4.00;;;4.30;99.90;;;;;;5016915;28;20038;-63
2023/12/28 04:55:48;;;;;;;5.82;3.50;;;4.40;99.90;;;;;;5018820;28;20029;-62
2023/12/28 04:58:14;;;;;;;5.45;3.58;;;4.40;99.90;;;;;;5020117;28;20401;-62
2023/12/28 05:00:40;;;;;;;5.45;3.88;;;4.40;99.90;;;;;;5018681;28;20231;-63
2023/12/28 05:03:08;;;;;;;4.35;3.70;;;4.40;99.90;;;;;;5018716;28;20033;-62
2023/12/28 05:05:34;;;;;;;5.20;3.72;;;4.50;99.90;;;;;;5017193;28;20121;-64
2023/12/28 05:07:59;;;;;;;4.28;3.40;;;4.50;99.90;;;;;;5020465;28;20169;-63
2023/12/28 05:10:25;;;;;;;4.03;3.47;;;4.60;99.90;;;;;;5021495;28;20112;-62
2023/12/28 05:12:51;;;;;;;4.90;3.50;;;4.60;99.90;;;;;;5019595;28;20017;-62
2023/12/28 05:15:19;;;;;;;3.47;3.17;;;4.60;99.90;;;;;;5017860;28;20174;-62
2023/12/28 05:17:44;;;;;;;3.33;2.70;;;4.60;99.90;;;;;;5017063;28;20099;-63
2023/12/28 05:20:10;;;;;;;3.90;2.70;;;4.60;99.90;;;;;;5021785;28;20065;-62
2023/12/28 05:22:36;;;;;;;3.30;2.78;;;4.70;99.90;;;;;;5021746;28;20041;-63
2023/12/28 05:25:02;;;;;;;4.95;2.90;;;4.70;99.90;;;;;;5024569;28;20020;-64
2023/12/28 05:27:27;;;;;;;3.33;2.75;;;4.80;99.90;;;;;;5020834;28;20026;-62
2023/12/28 05:29:53;;;;;;;3.80;3.17;;;4.80;99.90;;;;;;5024285;28;20053;-63
2023/12/28 05:32:19;;;;;;;3.65;2.58;;;4.80;99.90;;;;;;5020124;28;20108;-63
2023/12/28 05:34:44;;;;;;;5.25;2.45;;;4.90;99.90;;;;;;5020016;28;20038;-64
2023/12/28 05:37:10;;;;;;;4.32;2.88;;;4.90;99.90;;;;;;5023358;28;20018;-62
2023/12/28 05:39:35;;;;;;;4.03;2.65;;;4.90;99.90;;;;;;5022425;28;20683;-64
2023/12/28 05:42:01;;;;;;;4.50;2.65;;;4.90;99.90;;;;;;5021931;28;20075;-63
2023/12/28 05:44:27;;;;;;;4.18;2.72;;;4.90;99.90;;;;;;5022974;28;20108;-65
2023/12/28 05:46:52;;;;;;;5.35;2.33;;;4.90;99.90;;;;;;5019377;28;20038;-61
2023/12/28 05:49:18;;;;;;;3.20;2.65;;;5.00;99.90;;;;;;5022427;28;20022;-62
2023/12/28 05:51:44;;;;;;;7.45;2.70;;;5.00;99.90;;;;;;5021669;28;20061;-62
2023/12/28 05:54:10;;;;;;;6.78;5.95;;;5.00;99.90;;;;;;5021255;28;20025;-63
2023/12/28 05:56:35;;;;;;;5.75;5.15;;;5.10;99.90;;;;;;5023158;28;20042;-64
2023/12/28 05:59:01;;;;;;;5.40;4.65;;;5.10;99.90;;;;;;5021076;28;20026;-64
2023/12/28 06:01:27;;;;;;;5.50;4.38;;;5.20;99.90;;;;;;5020805;28;20057;-62
2023/12/28 06:03:53;;;;;;;4.63;3.53;;;5.20;99.90;;;;;;5020406;28;20648;-63
2023/12/28 06:06:19;;;;;;;4.40;4.00;;;5.20;99.90;;;;;;5021202;28;20116;-63
2023/12/28 06:08:45;;;;;;;5.30;3.92;;;5.20;99.90;;;;;;5021023;28;20084;-62
2023/12/28 06:11:10;;;;;;;4.28;3.05;;;5.20;99.90;;;;;;5023821;28;20030;-62
2023/12/28 06:13:36;;;;;;;6.03;5.43;;;5.20;99.90;;;;;;5024026;28;20036;-61
2023/12/28 06:16:02;;;;;;;4.32;3.92;;;5.20;99.90;;;;;;5021481;28;20026;-63
2023/12/28 06:18:27;;;;;;;4.28;2.90;;;5.10;99.90;;;;;;5024068;28;20029;-63
2023/12/28 06:20:53;;;;;;;7.47;4.30;;;5.10;99.90;;;;;;5024786;28;20142;-63
2023/12/28 06:23:18;;;;;;;5.15;4.00;;;5.00;99.90;;;;;;5022768;28;20175;-63
2023/12/28 06:25:44;;;;;;;5.30;4.63;;;5.00;99.90;;;;;;5019506;28;20034;-63
2023/12/28 06:28:10;;;;;;;4.70;3.92;;;4.90;99.90;;;;;;5021052;28;20025;-64
2023/12/28 06:30:35;;;;;;;3.83;3.42;;;4.90;99.90;;;;;;5024660;28;20123;-63
2023/12/28 06:33:01;;;;;;;16.13;4.47;;;4.90;99.90;;;;;;5022099;28;20067;-62
2023/12/28 06:35:27;;;;;;;3.83;2.97;;;4.90;99.90;;;;;;5019566;28;20025;-63
2023/12/28 06:37:52;;;;;;;5.30;2.30;;;4.90;99.90;;;;;;5020068;28;20375;-63
2023/12/28 06:40:18;;;;;;;5.03;1.98;;;4.90;99.90;;;;;;5022009;28;20090;-64
2023/12/28 06:42:43;;;;;;;3.72;2.58;;;4.90;99.90;;;;;;5019501;28;20026;-63
2023/12/28 06:45:10;;;;;;;3.60;2.30;;;5.00;99.90;;;;;;5019348;28;20080;-63
2023/12/28 06:47:36;;;;;;;2.78;2.40;;;5.00;99.90;;;;;;5019209;28;20045;-63
2023/12/28 06:50:01;;;;;;;3.03;2.15;;;5.00;99.90;;;;;;5026397;28;20029;-64
2023/12/28 06:52:27;;;;;;;2.38;2.17;;;5.00;99.90;;;;;;5019086;28;20025;-64
2023/12/28 06:54:53;;;;;;;4.47;3.00;;;5.00;99.90;;;;;;5023160;28;20044;-64
2023/12/28 06:57:19;;;;;;;4.80;3.05;;;5.00;99.90;;;;;;5022361;28;20391;-65
2023/12/28 06:59:44;;;;;;;3.60;2.88;;;5.00;99.90;;;;;;5022760;28;20556;-63
2023/12/28 07:02:10;;;;;;;8.15;3.38;;;5.00;99.90;;;;;;5022454;28;20037;-63
2023/12/28 07:04:36;;;;;;;10.15;3.75;;;5.00;99.90;;;;;;5005699;28;20038;-63
2023/12/28 07:07:02;;;;;;;4.53;2.83;;;5.10;99.90;;;;;;5020030;28;20040;-63
2023/12/28 07:09:27;;;;;;;4.60;2.33;;;5.10;99.90;;;;;;5018179;28;20512;-64
2023/12/28 07:11:53;;;;;;;2.75;2.25;;;5.10;99.90;;;;;;5019574;28;20182;-63
2023/12/28 07:14:19;;;;;;;6.85;3.97;;;5.10;99.90;;;;;;5020362;28;20127;-62
2023/12/28 07:16:45;;;;;;;4.22;2.80;;;5.10;99.90;;;;;;5021693;28;20033;-64
2023/12/28 07:19:10;;;;;;;3.60;2.40;;;5.20;99.90;;;;;;5021041;28;20017;-65
2023/12/28 07:21:36;;;;;;;2.60;2.40;;;5.20;99.90;;;;;;5022164;28;20599;-64
2023/12/28 07:24:02;;;;;;;3.33;2.20;;;5.30;99.90;;;;;;5021303;28;20494;-62
2023/12/28 07:26:27;;;;;;;3.63;3.33;;;5.30;99.90;;;;;;5018435;28;20038;-64
2023/12/28 07:28:54;;;;;;;3.60;2.90;;;5.30;99.90;;;;;;5020004;28;20045;-62
2023/12/28 07:31:27;;;;;;;3.42;2.72;;;5.40;99.90;;;;;;5023730;28;20571;-62
2023/12/28 07:33:53;;;;;;;8.23;5.93;;;5.40;99.90;;;;;;5025942;28;20029;-62
2023/12/28 07:36:20;;;;;;;6.22;2.67;;;5.50;99.90;;;;;;5018260;28;20087;-63
2023/12/28 07:38:45;;;;;;;2.35;1.80;;;5.50;99.90;;;;;;5019550;28;20037;-63
2023/12/28 07:41:11;;;;;;;2.80;2.00;;;5.60;99.90;;;;;;5019893;28;20478;-62
2023/12/28 07:43:37;;;;;;;2.55;1.83;;;5.60;99.90;;;;;;5021063;28;20036;-63
2023/12/28 07:46:03;;;;;;;2.70;1.92;;;5.70;99.90;;;;;;5020904;28;20032;-63
2023/12/28 07:48:31;;;;;;;3.03;2.20;;;5.70;99.90;;;;;;5019640;28;20506;-65
2023/12/28 07:50:57;;;;;;;3.53;2.28;;;5.80;99.90;;;;;;5019352;28;20034;-63
2023/12/28 07:53:23;;;;;;;2.97;2.22;;;5.80;99.90;;;;;;5016814;28;20145;-64
2023/12/28 07:55:49;;;;;;;3.83;2.75;;;5.80;99.90;;;;;;5017366;28;20076;-63
2023/12/28 07:58:15;;;;;;;3.30;2.13;;;5.90;99.90;;;;;;5021879;28;20029;-63
2023/12/28 08:00:41;;;;;;;17.17;10.75;;;5.90;99.90;;;;;;5022551;28;20091;-63
2023/12/28 08:03:06;;;;;;;5.28;3.83;;;5.90;99.90;;;;;;5019497;28;20505;-62
2023/12/28 08:05:32;;;;;;;3.10;2.80;;;6.00;99.90;;;;;;5020032;28;20045;-63
2023/12/28 08:07:57;;;;;;;4.35;2.38;;;6.10;99.90;;;;;;5019849;28;20034;-63
2023/12/28 08:10:23;;;;;;;4.15;3.22;;;6.20;99.90;;;;;;5020405;28;20459;-64
2023/12/28 08:12:49;;;;;;;3.65;2.30;;;6.20;99.90;;;;;;5021336;28;20034;-65
2023/12/28 08:15:14;;;;;;;4.07;1.63;;;6.30;99.90;;;;;;5019965;28;20030;-62
2023/12/28 08:17:40;;;;;;;2.80;2.10;;;6.40;99.90;;;;;;5016845;28;20127;-62
2023/12/28 08:20:06;;;;;;;2.83;2.28;;;6.40;99.90;;;;;;5021407;28;20064;-62
2023/12/28 08:22:32;;;;;;;4.63;3.70;;;6.50;99.90;;;;;;5022989;28;20022;-63
2023/12/28 08:24:58;;;;;;;2.33;1.80;;;6.60;99.90;;;;;;5021454;28;20397;-62
2023/12/28 08:27:23;;;;;;;3.90;2.72;;;6.80;99.90;;;;;;5020969;28;20030;-65
2023/12/28 08:29:49;;;;;;;2.75;1.67;;;7.10;99.90;;;;;;5016799;28;20041;-64
2023/12/28 08:32:15;;;;;;;2.47;1.33;;;7.40;99.90;;;;;;5013663;28;20038;-63
2023/12/28 08:34:40;;;;;;;1.88;1.20;;;7.50;99.90;;;;;;5018580;28;20030;-63
2023/12/28 08:37:06;;;;;;;2.38;1.30;;;7.70;99.90;;;;;;5018388;28;20083;-64
2023/12/28 08:39:32;;;;;;;2.55;1.20;;;7.80;99.90;;;;;;5018187;28;20053;-62
2023/12/28 08:41:58;;;;;;;3.65;1.25;;;7.90;99.90;;;;;;5019367;28;20038;-64
2023/12/28 08:44:23;;;;;;;1.40;1.25;;;8.00;99.90;;;;;;5020111;28;20088;-62
2023/12/28 08:46:49;;;;;;;2.20;1.40;;;8.10;99.90;;;;;;5017950;28;20042;-62
2023/12/28 08:49:15;;;;;;;1.95;1.30;;;8.20;99.90;;;;;;5019671;28;20112;-68
2023/12/28 08:51:42;;;;;;;3.53;1.30;;;8.30;99.90;;;;;;5019178;28;20069;-61
2023/12/28 08:54:09;;;;;;;3.42;1.40;;;8.40;99.90;;;;;;5020821;28;20026;-62
2023/12/28 08:56:35;;;;;;;2.15;1.23;;;8.40;99.90;;;;;;5018347;28;20047;-64
2023/12/28 08:59:01;;;;;;;1.50;1.20;;;8.40;99.90;;;;;;5019781;28;20176;-65
2023/12/28 09:01:26;;;;;;;1.70;1.08;;;8.50;99.90;;;;;;5019210;28;20111;-64
2023/12/28 09:03:54;;;;;;;1.25;1.15;;;8.50;99.90;;;;;;5024171;28;20472;-64
2023/12/28 09:06:20;;;;;;;2.55;1.80;;;8.50;99.90;;;;;;5022554;28;20089;-63
2023/12/28 09:08:53;;;;;;;2.45;1.50;;;8.50;99.90;;;;;;5021193;28;20045;-62
2023/12/28 09:11:19;;;;;;;1.45;1.20;;;8.40;99.90;;;;;;5026203;28;20041;-65
2023/12/28 09:13:45;;;;;;;2.85;1.33;;;8.40;99.90;;;;;;5023230;28;20030;-64
2023/12/28 09:16:13;;;;;;;3.17;1.30;;;8.40;99.90;;;;;;5024244;28;20026;-62
2023/12/28 09:18:39;;;;;;;1.15;1.05;;;8.40;99.90;;;;;;5022408;28;20566;-62
2023/12/28 09:21:06;;;;;;;1.92;1.27;;;8.40;99.90;;;;;;5022590;28;20045;-63
2023/12/28 09:23:32;;;;;;;2.22;1.30;;;8.50;99.90;;;;;;5020673;28;20033;-63
2023/12/28 09:25:59;;;;;;;1.35;1.08;;;8.60;99.90;;;;;;5023380;28;20421;-63
2023/12/28 09:28:25;;;;;;;1.65;1.00;;;8.60;99.90;;;;;;5023958;28;20044;-64
2023/12/28 09:30:51;;;;;;;1.40;1.00;;;8.60;99.90;;;;;;5022249;28;20033;-62
2023/12/28 09:33:16;;;;;;;1.95;1.17;;;8.70;99.90;;;;;;5020237;28;20030;-63
2023/12/28 09:35:42;;;;;;;1.52;1.17;;;8.70;99.90;;;;;;5019525;28;20482;-65
2023/12/28 09:38:08;;;;;;;1.80;0.95;;;8.80;99.90;;;;;;5023260;28;20552;-63
2023/12/28 09:40:36;;;;;;;1.10;0.98;;;8.80;99.90;;;;;;5024111;28;20037;-65
2023/12/28 09:43:27;;;;;;;1.17;1.02;;;8.80;99.90;;;;;;5020279;28;20034;-65
2023/12/28 09:45:54;;;;;;;3.40;1.15;;;8.80;99.90;;;;;;5023478;28;20070;-63
2023/12/28 09:48:24;;;;;;;4.45;2.67;;;8.90;99.90;;;;;;5019716;28;20363;-62
2023/12/28 09:50:51;;;;;;;3.28;1.13;;;8.90;99.90;;;;;;5020272;28;20033;-63
2023/12/28 09:53:17;;;;;;;1.08;0.90;;;8.90;99.90;;;;;;5019188;28;20034;-63
2023/12/28 09:55:44;;;;;;;1.63;0.90;;;8.90;99.90;;;;;;5021563;28;20498;-63
2023/12/28 09:58:13;;;;;;;1.30;1.10;;;8.90;99.90;;;;;;5021410;28;20398;-63
2023/12/28 10:00:39;;;;;;;1.20;0.90;;;9.00;99.90;;;;;;5022457;28;20050;-64
2023/12/28 10:03:04;;;;;;;1.17;0.95;;;9.00;99.90;;;;;;5024174;28;20486;-65
2023/12/28 10:05:30;;;;;;;1.00;0.88;;;9.00;99.90;;;;;;5022608;28;20030;-65
2023/12/28 10:07:57;;;;;;;1.60;1.15;;;9.00;99.90;;;;;;5022324;28;20497;-62
2023/12/28 10:10:22;;;;;;;2.47;1.20;;;9.10;99.90;;;;;;5019434;28;20026;-63
2023/12/28 10:12:48;;;;;;;1.48;1.10;;;9.10;99.90;;;;;;5022140;28;20696;-63
2023/12/28 10:15:14;;;;;;;1.63;1.25;;;9.10;99.90;;;;;;5021215;28;20048;-63
2023/12/28 10:17:39;;;;;;;1.90;1.15;;;9.20;99.90;;;;;;5022369;28;20029;-63
2023/12/28 10:20:09;;;;;;;1.48;1.30;;;9.30;99.90;;;;;;5021756;28;20466;-64
2023/12/28 10:22:36;;;;;;;1.20;1.00;;;9.30;99.90;;;;;;5021504;28;20076;-61
2023/12/28 10:25:05;;;;;;;1.75;1.00;;;9.50;99.90;;;;;;5022303;28;20109;-65
2023/12/28 10:27:31;;;;;;;1.15;1.00;;;9.50;99.90;;;;;;5020523;28;20437;-64
2023/12/28 10:29:57;;;;;;;1.27;1.10;;;9.50;99.90;;;;;;5021875;28;20029;-64
2023/12/28 10:32:25;;;;;;;1.30;1.10;;;9.50;99.90;;;;;;5020157;28;20041;-63
2023/12/28 10:34:53;;;;;;;2.85;1.30;;;9.50;99.90;;;;;;5018996;28;20375;-63
2023/12/28 10:37:20;;;;;;;2.80;1.20;;;9.60;99.90;;;;;;5017571;28;20477;-63
2023/12/28 10:39:50;;;;;;;1.80;1.20;;;9.50;99.90;;;;;;5020024;28;20432;-65
2023/12/28 10:42:31;;;;;;;2.40;1.30;;;9.50;99.90;;;;;;5021060;28;20029;-64
2023/12/28 10:45:20;;;;;;;2.05;1.20;;;9.60;99.90;;;;;;5016180;28;20042;-63
2023/12/28 10:48:00;;;;;;;2.00;1.40;;;9.60;99.90;;;;;;5021809;28;20132;-64
2023/12/28 10:50:30;;;;;;;3.33;1.60;;;9.60;99.90;;;;;;5020021;28;20750;-64
2023/12/28 10:53:15;;;;;;;1.70;1.45;;;9.60;99.90;;;;;;5018726;28;20379;-63
2023/12/28 10:56:09;;;;;;;2.55;1.80;;;9.60;99.90;;;;;;5020681;28;20041;-64
2023/12/28 10:58:55;;;;;;;3.17;1.60;;;9.70;99.90;;;;;;5014886;28;20030;-63
2023/12/28 11:01:30;;;;;;;2.30;1.60;;;9.70;99.90;;;;;;5019543;28;20041;-63
2023/12/28 11:04:08;;;;;;;2.30;1.80;;;9.80;99.90;;;;;;5020503;28;20385;-64
2023/12/28 11:06:34;;;;;;;2.00;1.38;;;9.80;99.90;;;;;;5020028;28;20442;-64
2023/12/28 11:09:01;;;;;;;1.20;1.10;;;9.80;99.90;;;;;;5016821;28;20705;-65
2023/12/28 11:11:27;;;;;;;2.38;1.20;;;9.90;99.90;;;;;;5017922;28;20038;-63
2023/12/28 11:13:56;;;;;;;1.17;1.08;;;9.80;99.90;;;;;;5015879;28;20025;-64
2023/12/28 11:16:22;;;;;;;1.35;1.10;;;9.80;99.90;;;;;;5020079;28;20018;-63
2023/12/28 11:18:49;;;;;;;0.90;0.90;;;9.90;99.90;;;;;;5020941;28;20025;-65
2023/12/28 11:21:17;;;;;;;2.35;1.10;;;9.90;99.90;;;;;;5018387;28;20382;-65
2023/12/28 11:23:44;;;;;;;1.55;1.00;;;9.90;99.90;;;;;;5020169;28;20025;-65
2023/12/28 11:26:22;;;;;;;1.50;0.98;;;9.90;99.90;;;;;;5019261;28;20052;-64
2023/12/28 11:28:48;;;;;;;1.42;1.00;;;10.00;99.90;;;;;;5019323;28;20045;-63
2023/12/28 11:31:15;;;;;;;1.00;0.90;;;10.00;99.90;;;;;;5019951;28;20358;-63
2023/12/28 11:33:50;;;;;;;0.80;0.80;;;10.00;99.90;;;;;;5021336;28;20112;-64
2023/12/28 11:36:31;;;;;;;1.70;1.10;;;10.00;99.90;;;;;;5020395;28;20641;-64
2023/12/28 11:38:59;;;;;;;;;;;10.00;99.90;;;;;;5021127;28;20048;-63
2023/12/28 11:41:25;;;;;;;0.90;0.88;;;9.90;99.90;;;;;;5024396;28;19935;-62
2023/12/28 11:43:53;;;;;;;1.02;0.90;;;9.90;99.90;;;;;;5019989;28;20038;-64
2023/12/28 11:46:20;;;;;;;1.05;0.90;;;9.90;99.90;;;;;;5021301;28;20021;-63
2023/12/28 11:48:46;;;;;;;1.00;0.90;;;9.80;99.90;;;;;;5021348;28;20067;-65
2023/12/28 11:51:11;;;;;;;1.38;0.88;;;9.80;99.90;;;;;;5020361;28;20060;-64
2023/12/28 11:53:39;;;;;;;1.70;0.90;;;9.70;99.90;;;;;;5017117;28;20048;-64
2023/12/28 11:56:09;;;;;;;1.33;1.23;;;9.70;99.90;;;;;;5017826;28;20065;-63
2023/12/28 11:58:35;;;;;;;1.30;1.20;;;9.70;99.90;;;;;;5020796;28;20026;-64
2023/12/28 12:01:02;;;;;;;1.90;0.93;;;9.70;99.90;;;;;;5020566;28;20041;-64
2023/12/28 12:03:29;;;;;;;2.55;1.85;;;9.70;99.90;;;;;;5020433;28;20116;-64
2023/12/28 12:05:57;;;;;;;1.52;1.33;;;9.80;99.90;;;;;;5020581;28;20138;-63
2023/12/28 12:08:22;;;;;;;2.13;1.30;;;9.70;99.90;;;;;;5025201;28;20061;-63
2023/12/28 12:10:48;;;;;;;1.70;1.08;;;9.80;99.90;;;;;;5018565;28;20026;-64
2023/12/28 12:13:14;;;;;;;1.23;1.10;;;9.70;99.90;;;;;;5016201;28;20490;-63
2023/12/28 12:15:40;;;;;;;3.10;1.08;;;9.70;99.90;;;;;;5022232;28;20026;-62
2023/12/28 12:18:06;;;;;;;1.77;1.30;;;9.70;99.90;;;;;;5019030;28;20029;-64
2023/12/28 12:20:32;;;;;;;1.10;1.00;;;9.70;99.90;;;;;;5016444;28;20030;-64
2023/12/28 12:23:00;;;;;;;2.40;1.42;;;9.70;99.90;;;;;;5020178;28;20104;-63
2023/12/28 12:25:28;;;;;;;1.85;1.13;;;9.70;99.90;;;;;;5019772;28;20168;-63
2023/12/28 12:27:54;;;;;;;1.75;1.23;;;9.70;99.90;;;;;;5021774;28;20033;-64
2023/12/28 12:30:20;;;;;;;1.10;1.00;;;9.70;99.90;;;;;;5023141;28;20091;-63
2023/12/28 12:32:46;;;;;;;1.55;1.15;;;9.70;99.90;;;;;;5023769;28;20531;-63
2023/12/28 12:35:14;;;;;;;2.05;1.23;;;9.70;99.90;;;;;;5024606;28;20025;-64
2023/12/28 12:37:40;;;;;;;2.78;1.38;;;9.60;99.90;;;;;;5024581;28;20030;-63
2023/12/28 12:40:06;;;;;;;2.35;1.20;;;9.60;99.90;;;;;;5022307;28;20359;-64
2023/12/28 12:42:33;;;;;;;2.17;1.83;;;9.50;99.90;;;;;;5024381;28;20433;-63
2023/12/28 12:44:58;;;;;;;2.10;1.50;;;9.50;99.90;;;;;;5023056;28;20524;-65
2023/12/28 12:47:24;;;;;;;1.95;1.60;;;9.50;99.90;;;;;;5021245;28;20030;-63
2023/12/28 12:49:55;;;;;;;2.70;1.85;;;9.50;99.90;;;;;;5022479;28;20040;-63
2023/12/28 12:52:23;;;;;;;1.40;1.30;;;9.50;99.90;;;;;;5021746;28;20033;-62